createdAt,value
2023-01-17T00:02:09.837Z,98291.28
2023-01-17T00:04:55.466Z,98294.91
2023-01-17T00:07:43.397Z,98295.31
2023-01-17T00:10:12.900Z,98289.78
2023-01-17T00:12:40.073Z,98297.09
2023-01-17T00:15:07.649Z,98301.41
2023-01-17T00:17:34.531Z,98294.50
2023-01-17T00:20:20.409Z,98291.44
2023-01-17T00:23:13.619Z,98292.16
2023-01-17T00:25:58.961Z,98298.50
2023-01-17T00:28:26.647Z,98293.38
2023-01-17T00:30:53.885Z,98304.94
2023-01-17T00:33:22.171Z,98308.00
2023-01-17T00:35:49.037Z,98314.47
2023-01-17T00:38:26.919Z,98315.28
2023-01-17T00:40:53.643Z,98309.00
2023-01-17T00:43:41.276Z,98318.06
2023-01-17T00:46:27.049Z,98312.78
2023-01-17T00:49:12.271Z,98320.41
2023-01-17T00:51:57.643Z,98320.97
2023-01-17T00:54:43.188Z,98317.72
2023-01-17T00:57:28.722Z,98328.09
2023-01-17T01:00:14.348Z,98334.34
2023-01-17T01:02:59.848Z,98337.72
2023-01-17T01:05:45.400Z,98336.16
2023-01-17T01:08:39.426Z,98353.22
2023-01-17T01:11:30.517Z,98359.06
2023-01-17T01:14:17.799Z,98355.97
2023-01-17T01:17:03.187Z,98362.44
2023-01-17T01:19:48.694Z,98360.16
2023-01-17T01:22:34.121Z,98355.13
2023-01-17T01:25:19.482Z,98359.13
2023-01-17T01:28:04.912Z,98365.78
2023-01-17T01:30:50.790Z,98358.59
2023-01-17T01:33:20.577Z,98363.41
2023-01-17T01:35:55.363Z,98368.44
2023-01-17T01:38:24.103Z,98371.00
2023-01-17T01:40:56.536Z,98363.28
2023-01-17T01:43:48.959Z,98375.03
2023-01-17T01:46:23.615Z,98381.03
2023-01-17T01:48:58.279Z,98377.00
2023-01-17T01:51:31.575Z,98377.06
2023-01-17T01:54:05.015Z,98388.84
2023-01-17T01:56:32.628Z,98395.19
2023-01-17T01:59:01.275Z,98386.91
2023-01-17T02:01:29.570Z,98387.53
2023-01-17T02:03:56.860Z,98395.50
2023-01-17T02:06:33.218Z,98400.94
2023-01-17T02:09:03.686Z,98401.31
2023-01-17T02:11:31.128Z,98402.31
2023-01-17T02:13:57.943Z,98408.50
2023-01-17T02:16:31.422Z,98412.13
2023-01-17T02:19:10.510Z,98410.34
2023-01-17T02:21:45.360Z,98428.03
2023-01-17T02:24:37.022Z,98437.97
2023-01-17T02:27:22.463Z,98440.41
2023-01-17T02:30:00.162Z,98442.00
2023-01-17T02:32:33.416Z,98444.09
2023-01-17T02:35:28.449Z,98441.94
2023-01-17T02:38:33.882Z,98429.97
2023-01-17T02:41:05.741Z,98434.03
2023-01-17T02:43:33.080Z,98437.09
2023-01-17T02:46:00.196Z,98432.06
2023-01-17T02:48:28.609Z,98430.06
2023-01-17T02:51:04.689Z,98437.72
2023-01-17T02:53:55.719Z,98426.75
2023-01-17T02:56:59.858Z,98422.72
2023-01-17T02:59:38.505Z,98416.41
2023-01-17T03:02:21.568Z,98424.44
2023-01-17T03:04:56.272Z,98413.88
2023-01-17T03:07:26.306Z,98436.81
2023-01-17T03:09:59.216Z,98435.81
2023-01-17T03:12:31.463Z,98437.28
2023-01-17T03:14:58.237Z,98448.94
2023-01-17T03:17:29.324Z,98436.72
2023-01-17T03:19:56.153Z,98437.50
2023-01-17T03:22:22.962Z,98432.56
2023-01-17T03:24:50.540Z,98429.31
2023-01-17T03:27:17.269Z,98427.06
2023-01-17T03:29:44.033Z,98421.88
2023-01-17T03:32:10.761Z,98425.91
2023-01-17T03:34:37.742Z,98422.13
2023-01-17T03:37:04.613Z,98415.81
2023-01-17T03:39:31.843Z,98419.22
2023-01-17T03:41:58.594Z,98422.03
2023-01-17T03:44:25.375Z,98413.19
2023-01-17T03:46:52.227Z,98416.28
2023-01-17T03:49:19.250Z,98423.63
2023-01-17T03:51:46.286Z,98425.88
2023-01-17T03:54:13.496Z,98416.34
2023-01-17T03:56:40.459Z,98421.56
2023-01-17T03:59:07.353Z,98411.56
2023-01-17T04:01:34.181Z,98418.09
2023-01-17T04:04:01.138Z,98417.84
2023-01-17T04:06:28.528Z,98417.91
2023-01-17T04:08:55.243Z,98422.41
2023-01-17T04:11:22.033Z,98422.88
2023-01-17T04:13:49.126Z,98419.44
2023-01-17T04:16:17.905Z,98425.19
2023-01-17T04:18:44.839Z,98418.75
2023-01-17T04:21:12.015Z,98423.56
2023-01-17T04:23:38.801Z,98420.72
2023-01-17T04:26:05.750Z,98423.13
2023-01-17T04:28:32.476Z,98424.19
2023-01-17T04:31:00.182Z,98422.94
2023-01-17T04:33:27.173Z,98427.06
2023-01-17T04:35:54.321Z,98414.84
2023-01-17T04:38:21.929Z,98420.84
2023-01-17T04:40:48.762Z,98426.59
2023-01-17T04:43:16.819Z,98416.03
2023-01-17T04:45:43.932Z,98418.13
2023-01-17T04:48:12.736Z,98409.06
2023-01-17T04:50:40.072Z,98413.53
2023-01-17T04:53:07.064Z,98414.78
2023-01-17T04:55:34.184Z,98417.06
2023-01-17T04:58:00.972Z,98419.03
2023-01-17T05:00:27.795Z,98419.53
2023-01-17T05:02:54.668Z,98424.97
2023-01-17T05:05:21.727Z,98427.78
2023-01-17T05:07:58.758Z,98429.28
2023-01-17T05:10:26.295Z,98423.47
2023-01-17T05:12:57.388Z,98417.03
2023-01-17T05:15:24.462Z,98423.47
2023-01-17T05:17:52.560Z,98417.25
2023-01-17T05:20:20.653Z,98413.78
2023-01-17T05:22:55.504Z,98412.44
2023-01-17T05:25:30.123Z,98409.75
2023-01-17T05:27:57.582Z,98418.31
2023-01-17T05:30:24.275Z,98416.63
2023-01-17T05:32:52.974Z,98411.19
2023-01-17T05:35:22.004Z,98414.97
2023-01-17T05:37:50.036Z,98415.19
2023-01-17T05:40:20.969Z,98409.69
2023-01-17T05:42:48.800Z,98413.59
2023-01-17T05:45:19.267Z,98419.38
2023-01-17T05:47:47.808Z,98409.06
2023-01-17T05:50:17.545Z,98419.94
2023-01-17T05:52:56.653Z,98412.81
2023-01-17T05:55:24.601Z,98410.31
2023-01-17T05:57:51.582Z,98410.78
2023-01-17T06:00:19.271Z,98421.88
2023-01-17T06:02:47.041Z,98421.00
2023-01-17T06:05:14.579Z,98421.56
2023-01-17T06:07:44.238Z,98414.22
2023-01-17T06:10:11.748Z,98423.22
2023-01-17T06:12:38.450Z,98413.69
2023-01-17T06:15:06.646Z,98417.50
2023-01-17T06:17:33.419Z,98410.69
2023-01-17T06:20:00.222Z,98416.94
2023-01-17T06:22:27.080Z,98412.59
2023-01-17T06:24:54.089Z,98412.78
2023-01-17T06:27:21.451Z,98408.34
2023-01-17T06:29:48.226Z,98407.53
2023-01-17T06:32:15.288Z,98409.56
2023-01-17T06:34:42.153Z,98395.38
2023-01-17T06:37:09.828Z,98387.44
2023-01-17T06:39:37.004Z,98406.06
2023-01-17T06:42:04.185Z,98394.13
2023-01-17T06:44:31.319Z,98393.63
2023-01-17T06:46:58.668Z,98395.50
2023-01-17T06:49:26.334Z,98384.41
2023-01-17T06:51:53.292Z,98401.53
2023-01-17T06:54:20.123Z,98391.03
2023-01-17T06:56:47.126Z,98402.19
2023-01-17T06:59:14.038Z,98403.00
2023-01-17T07:01:41.511Z,98407.34
2023-01-17T07:04:08.620Z,98404.88
2023-01-17T07:06:36.537Z,98413.22
2023-01-17T07:09:04.406Z,98416.94
2023-01-17T07:11:31.625Z,98408.28
2023-01-17T07:13:58.646Z,98411.44
2023-01-17T07:16:25.580Z,98420.00
2023-01-17T07:18:53.294Z,98421.25
2023-01-17T07:21:20.163Z,98413.22
2023-01-17T07:23:48.200Z,98415.41
2023-01-17T07:26:17.331Z,98418.38
2023-01-17T07:28:44.399Z,98411.63
2023-01-17T07:31:11.447Z,98414.88
2023-01-17T07:33:38.383Z,98408.31
2023-01-17T07:36:11.405Z,98418.16
2023-01-17T07:38:38.487Z,98412.13
2023-01-17T07:41:07.247Z,98420.53
2023-01-17T07:43:36.780Z,98422.50
2023-01-17T07:46:06.381Z,98425.81
2023-01-17T07:48:33.301Z,98421.94
2023-01-17T07:51:00.103Z,98424.88
2023-01-17T07:53:31.128Z,98429.00
2023-01-17T07:56:03.453Z,98436.47
2023-01-17T07:58:31.368Z,98436.00
2023-01-17T08:01:06.125Z,98440.97
2023-01-17T08:03:36.340Z,98424.78
2023-01-17T08:06:03.447Z,98425.09
2023-01-17T08:08:30.388Z,98421.94
2023-01-17T08:10:57.323Z,98420.44
2023-01-17T08:13:24.512Z,98419.75
2023-01-17T08:15:52.016Z,98425.88
2023-01-17T08:18:18.981Z,98422.44
2023-01-17T08:20:45.929Z,98427.22
2023-01-17T08:23:12.807Z,98433.16
2023-01-17T08:25:40.142Z,98440.16
2023-01-17T08:28:10.165Z,98435.16
2023-01-17T08:30:37.006Z,98436.97
2023-01-17T08:33:03.953Z,98435.38
2023-01-17T08:35:31.388Z,98442.72
2023-01-17T08:38:00.009Z,98438.50
2023-01-17T08:40:27.041Z,98441.00
2023-01-17T08:42:55.588Z,98445.81
2023-01-17T08:45:22.686Z,98435.13
2023-01-17T08:47:49.880Z,98435.28
2023-01-17T08:50:20.858Z,98432.03
2023-01-17T08:52:50.741Z,98429.91
2023-01-17T08:55:17.988Z,98432.81
2023-01-17T08:57:45.321Z,98431.25
2023-01-17T09:00:15.512Z,98422.84
2023-01-17T09:02:42.422Z,98434.63
2023-01-17T09:05:09.604Z,98438.72
2023-01-17T09:07:37.398Z,98445.63
2023-01-17T09:10:06.055Z,98429.16
2023-01-17T09:12:34.504Z,98443.84
2023-01-17T09:15:02.833Z,98452.34
2023-01-17T09:17:29.893Z,98433.91
2023-01-17T09:19:56.777Z,98438.31
2023-01-17T09:22:23.723Z,98449.47
2023-01-17T09:24:50.547Z,98458.88
2023-01-17T09:27:23.867Z,98448.78
2023-01-17T09:29:55.063Z,98458.88
2023-01-17T09:32:22.043Z,98457.28
2023-01-17T09:34:51.086Z,98466.47
2023-01-17T09:37:18.171Z,98462.66
2023-01-17T09:39:45.168Z,98474.78
2023-01-17T09:42:31.277Z,98482.06
2023-01-17T09:44:58.678Z,98472.47
2023-01-17T09:47:35.641Z,98475.69
2023-01-17T09:50:26.179Z,98486.78
2023-01-17T09:53:03.440Z,98478.72
2023-01-17T09:55:43.797Z,98483.50
2023-01-17T09:58:21.054Z,98487.69
2023-01-17T10:01:00.647Z,98496.06
2023-01-17T10:03:33.566Z,98485.47
2023-01-17T10:06:22.226Z,98487.22
2023-01-17T10:08:51.954Z,98495.03
2023-01-17T10:12:00.028Z,98493.47
2023-01-17T10:14:56.010Z,98494.38
2023-01-17T10:17:36.618Z,98493.03
2023-01-17T10:20:34.196Z,98497.06
2023-01-17T10:23:01.343Z,98494.16
2023-01-17T10:25:47.967Z,98497.88
2023-01-17T10:28:17.600Z,98499.84
2023-01-17T10:30:50.198Z,98492.41
2023-01-17T10:33:29.580Z,98501.88
2023-01-17T10:36:03.845Z,98496.31
2023-01-17T10:38:42.449Z,98490.16
2023-01-17T10:41:16.287Z,98494.97
2023-01-17T10:43:50.050Z,98494.63
2023-01-17T10:46:31.446Z,98482.16
2023-01-17T10:48:58.602Z,98487.44
2023-01-17T10:51:43.968Z,98496.66
2023-01-17T10:54:27.941Z,98482.19
2023-01-17T10:56:55.279Z,98487.47
2023-01-17T10:59:25.362Z,98476.53
2023-01-17T11:01:52.404Z,98474.56
2023-01-17T11:04:31.350Z,98462.28
2023-01-17T11:07:13.423Z,98471.44
2023-01-17T11:09:44.816Z,98469.09
2023-01-17T11:12:22.087Z,98470.09
2023-01-17T11:15:10.168Z,98464.50
2023-01-17T11:17:53.384Z,98458.41
2023-01-17T11:20:33.036Z,98459.75
2023-01-17T11:23:32.808Z,98462.06
2023-01-17T11:26:06.073Z,98460.34
2023-01-17T11:28:35.103Z,98452.19
2023-01-17T11:31:07.736Z,98460.91
2023-01-17T11:33:48.093Z,98463.97
2023-01-17T11:36:27.636Z,98463.19
2023-01-17T11:39:04.655Z,98464.25
2023-01-17T11:41:42.074Z,98458.53
2023-01-17T11:44:34.798Z,98462.53
2023-01-17T11:47:13.822Z,98466.81
2023-01-17T11:49:42.864Z,98461.75
2023-01-17T11:52:33.332Z,98462.47
2023-01-17T11:55:00.312Z,98457.09
2023-01-17T11:57:34.399Z,98455.44
2023-01-17T12:00:29.499Z,98447.38
2023-01-17T12:03:16.145Z,98439.00
2023-01-17T12:05:46.919Z,98443.25
2023-01-17T12:08:14.101Z,98441.13
2023-01-17T12:11:06.896Z,98428.66
2023-01-17T12:13:58.530Z,98425.97
2023-01-17T12:17:03.738Z,98429.31
2023-01-17T12:20:01.127Z,98434.41
2023-01-17T12:23:05.843Z,98420.84
2023-01-17T12:25:54.635Z,98423.75
2023-01-17T12:28:33.897Z,98418.78
2023-01-17T12:31:17.205Z,98423.06
2023-01-17T12:34:22.025Z,98411.84
2023-01-17T12:36:56.624Z,98414.69
2023-01-17T12:39:37.684Z,98403.72
2023-01-17T12:42:23.591Z,98412.72
2023-01-17T12:45:02.518Z,98408.44
2023-01-17T12:47:30.349Z,98402.00
2023-01-17T12:50:20.813Z,98405.97
2023-01-17T12:53:18.700Z,98404.91
2023-01-17T12:55:59.652Z,98390.53
2023-01-17T12:58:31.135Z,98384.34
2023-01-17T13:01:32.998Z,98387.03
2023-01-17T13:04:15.280Z,98385.88
2023-01-17T13:06:52.511Z,98385.19
2023-01-17T13:09:22.267Z,98369.25
2023-01-17T13:11:59.678Z,98373.13
2023-01-17T13:14:28.662Z,98361.22
2023-01-17T13:16:58.842Z,98361.44
2023-01-17T13:19:25.913Z,98381.06
2023-01-17T13:21:53.153Z,98372.06
2023-01-17T13:24:33.677Z,98378.94
2023-01-17T13:27:12.811Z,98377.47
2023-01-17T13:29:47.763Z,98383.34
2023-01-17T13:32:24.908Z,98378.75
2023-01-17T13:35:07.871Z,98386.91
2023-01-17T13:38:09.018Z,98382.94
2023-01-17T13:40:37.732Z,98379.31
2023-01-17T13:43:19.286Z,98382.78
2023-01-17T13:46:00.025Z,98384.69
2023-01-17T13:48:34.980Z,98383.91
2023-01-17T13:51:25.042Z,98390.97
2023-01-17T13:53:51.971Z,98387.53
2023-01-17T13:56:18.638Z,98390.59
2023-01-17T13:58:47.309Z,98391.22
2023-01-17T14:01:14.463Z,98393.66
2023-01-17T14:03:50.484Z,98391.16
2023-01-17T14:06:41.508Z,98381.44
2023-01-17T14:09:08.542Z,98381.03
2023-01-17T14:11:57.337Z,98384.06
2023-01-17T14:14:36.598Z,98398.09
2023-01-17T14:17:12.932Z,98397.41
2023-01-17T14:19:39.838Z,98396.75
2023-01-17T14:22:22.716Z,98397.59
2023-01-17T14:25:10.085Z,98385.41
2023-01-17T14:27:46.160Z,98393.84
2023-01-17T14:30:25.116Z,98409.16
2023-01-17T14:33:01.464Z,98418.66
2023-01-17T14:35:34.500Z,98413.50
2023-01-17T14:38:05.840Z,98423.63
2023-01-17T14:40:34.992Z,98438.72
2023-01-17T14:43:07.183Z,98434.97
2023-01-17T14:45:35.473Z,98425.09
2023-01-17T14:48:07.643Z,98421.44
2023-01-17T14:50:42.688Z,98433.13
2023-01-17T14:53:15.842Z,98437.44
2023-01-17T14:55:49.380Z,98435.41
2023-01-17T14:58:22.053Z,98430.34
2023-01-17T15:00:58.697Z,98424.13
2023-01-17T15:03:27.727Z,98423.69
2023-01-17T15:05:57.618Z,98436.25
2023-01-17T15:08:32.961Z,98433.13
2023-01-17T15:11:05.463Z,98424.13
2023-01-17T15:13:44.861Z,98435.50
2023-01-17T15:16:24.865Z,98439.34
2023-01-17T15:18:53.684Z,98444.38
2023-01-17T15:21:23.036Z,98448.44
2023-01-17T15:23:58.926Z,98455.81
2023-01-17T15:26:28.907Z,98438.44
2023-01-17T15:29:06.034Z,98440.69
2023-01-17T15:31:49.369Z,98455.47
2023-01-17T15:34:30.987Z,98451.63
2023-01-17T15:37:01.129Z,98452.16
2023-01-17T15:39:30.847Z,98444.03
2023-01-17T15:42:00.139Z,98443.00
2023-01-17T15:44:49.721Z,98459.31
2023-01-17T15:47:39.788Z,98466.91
2023-01-17T15:50:28.748Z,98468.97
2023-01-17T15:53:04.855Z,98469.16
2023-01-17T15:55:34.367Z,98472.56
2023-01-17T15:58:01.857Z,98468.22
2023-01-17T16:00:37.464Z,98464.06
2023-01-17T16:03:20.212Z,98467.16
2023-01-17T16:05:47.808Z,98463.44
2023-01-17T16:08:25.352Z,98471.44
2023-01-17T16:11:01.910Z,98469.44
2023-01-17T16:13:33.401Z,98466.75
2023-01-17T16:16:18.528Z,98471.50
2023-01-17T16:18:46.659Z,98477.13
2023-01-17T16:21:18.881Z,98466.13
2023-01-17T16:23:46.104Z,98473.84
2023-01-17T16:26:12.895Z,98483.66
2023-01-17T16:28:39.694Z,98481.22
2023-01-17T16:31:06.893Z,98478.44
2023-01-17T16:33:33.839Z,98484.38
2023-01-17T16:36:00.655Z,98479.50
2023-01-17T16:38:27.344Z,98486.84
2023-01-17T16:40:54.489Z,98482.78
2023-01-17T16:43:21.217Z,98478.53
2023-01-17T16:45:53.151Z,98490.28
2023-01-17T16:48:20.352Z,98500.66
2023-01-17T16:50:50.848Z,98500.66
2023-01-17T16:53:26.312Z,98497.00
2023-01-17T16:55:58.633Z,98515.13
2023-01-17T16:58:25.615Z,98501.41
2023-01-17T17:00:52.580Z,98506.97
2023-01-17T17:03:21.048Z,98517.44
2023-01-17T17:05:58.782Z,98514.44
2023-01-17T17:08:25.678Z,98518.09
2023-01-17T17:10:52.632Z,98523.72
2023-01-17T17:13:19.694Z,98530.78
2023-01-17T17:15:46.983Z,98533.78
2023-01-17T17:18:15.332Z,98531.16
2023-01-17T17:20:42.961Z,98526.91
2023-01-17T17:23:26.489Z,98526.00
2023-01-17T17:25:56.959Z,98532.38
2023-01-17T17:28:23.922Z,98537.97
2023-01-17T17:30:50.702Z,98527.91
2023-01-17T17:33:17.494Z,98535.97
2023-01-17T17:35:44.355Z,98540.13
2023-01-17T17:38:11.188Z,98544.16
2023-01-17T17:40:38.110Z,98544.84
2023-01-17T17:43:04.876Z,98552.22
2023-01-17T17:45:35.107Z,98564.66
2023-01-17T17:48:01.958Z,98563.09
2023-01-17T17:50:28.880Z,98554.78
2023-01-17T17:52:55.670Z,98554.56
2023-01-17T17:55:22.501Z,98563.84
2023-01-17T17:57:50.082Z,98569.00
2023-01-17T18:00:18.042Z,98573.13
2023-01-17T18:02:44.795Z,98569.25
2023-01-17T18:05:14.974Z,98576.84
2023-01-17T18:07:42.408Z,98566.75
2023-01-17T18:10:09.895Z,98573.69
2023-01-17T18:12:36.587Z,98579.53
2023-01-17T18:15:03.381Z,98599.56
2023-01-17T18:17:30.754Z,98592.16
2023-01-17T18:19:57.657Z,98595.84
2023-01-17T18:22:24.571Z,98606.13
2023-01-17T18:24:51.376Z,98600.88
2023-01-17T18:27:18.252Z,98610.19
2023-01-17T18:29:45.076Z,98598.97
2023-01-17T18:32:13.209Z,98610.16
2023-01-17T18:34:41.528Z,98616.31
2023-01-17T18:37:08.480Z,98617.78
2023-01-17T18:39:35.186Z,98625.22
2023-01-17T18:42:02.139Z,98629.22
2023-01-17T18:44:30.054Z,98625.78
2023-01-17T18:47:01.929Z,98630.78
2023-01-17T18:49:29.187Z,98635.53
2023-01-17T18:51:55.899Z,98637.56
2023-01-17T18:54:22.627Z,98633.41
2023-01-17T18:56:49.584Z,98633.69
2023-01-17T18:59:20.457Z,98648.06
2023-01-17T19:01:48.086Z,98640.38
2023-01-17T19:04:17.218Z,98638.91
2023-01-17T19:06:46.378Z,98641.84
2023-01-17T19:09:14.899Z,98645.88
2023-01-17T19:11:44.553Z,98641.56
2023-01-17T19:14:12.224Z,98653.59
2023-01-17T19:16:41.405Z,98661.38
2023-01-17T19:19:10.666Z,98657.09
2023-01-17T19:21:37.912Z,98664.63
2023-01-17T19:24:04.930Z,98671.84
2023-01-17T19:26:31.769Z,98669.00
2023-01-17T19:29:00.301Z,98673.22
2023-01-17T19:31:29.026Z,98669.56
2023-01-17T19:33:57.628Z,98672.13
2023-01-17T19:36:27.459Z,98665.19
2023-01-17T19:39:04.347Z,98666.84
2023-01-17T19:41:32.418Z,98671.34
2023-01-17T19:44:08.913Z,98679.84
2023-01-17T19:46:36.515Z,98680.97
2023-01-17T19:49:05.493Z,98673.00
2023-01-17T19:51:32.544Z,98675.00
2023-01-17T19:54:01.372Z,98679.28
2023-01-17T19:56:28.895Z,98678.19
2023-01-17T19:59:00.702Z,98677.00
2023-01-17T20:01:30.164Z,98688.28
2023-01-17T20:03:58.313Z,98677.56
2023-01-17T20:06:28.800Z,98677.81
2023-01-17T20:08:55.999Z,98685.19
2023-01-17T20:11:24.171Z,98677.41
2023-01-17T20:13:56.126Z,98680.81
2023-01-17T20:16:24.761Z,98674.53
2023-01-17T20:18:52.089Z,98677.97
2023-01-17T20:21:24.335Z,98681.16
2023-01-17T20:23:52.038Z,98679.34
2023-01-17T20:26:25.236Z,98683.78
2023-01-17T20:28:53.428Z,98680.59
2023-01-17T20:31:25.198Z,98687.72
2023-01-17T20:33:56.092Z,98690.88
2023-01-17T20:36:25.487Z,98683.06
2023-01-17T20:38:53.376Z,98681.66
2023-01-17T20:41:22.496Z,98691.84
2023-01-17T20:43:51.666Z,98693.78
2023-01-17T20:46:19.890Z,98690.59
2023-01-17T20:48:47.424Z,98703.88
2023-01-17T20:51:14.884Z,98699.91
2023-01-17T20:53:43.505Z,98702.25
2023-01-17T20:56:12.730Z,98710.31
2023-01-17T20:58:40.000Z,98705.41
2023-01-17T21:01:08.877Z,98711.97
2023-01-17T21:03:36.127Z,98711.97
2023-01-17T21:06:08.223Z,98709.28
2023-01-17T21:08:37.832Z,98717.59
2023-01-17T21:11:05.740Z,98713.06
2023-01-17T21:13:32.643Z,98718.25
2023-01-17T21:15:59.796Z,98708.47
2023-01-17T21:18:27.960Z,98717.38
2023-01-17T21:20:54.655Z,98711.97
2023-01-17T21:23:23.742Z,98718.41
2023-01-17T21:25:59.599Z,98729.53
2023-01-17T21:28:28.859Z,98731.84
2023-01-17T21:30:55.859Z,98723.06
2023-01-17T21:33:25.328Z,98734.50
2023-01-17T21:35:52.664Z,98734.66
2023-01-17T21:38:20.290Z,98734.66
2023-01-17T21:40:47.254Z,98740.22
2023-01-17T21:43:15.174Z,98737.84
2023-01-17T21:45:42.474Z,98747.22
2023-01-17T21:48:13.545Z,98736.63
2023-01-17T21:50:40.441Z,98745.16
2023-01-17T21:53:08.669Z,98752.56
2023-01-17T21:55:54.498Z,98734.59
2023-01-17T21:58:39.878Z,98748.34
2023-01-17T22:01:25.363Z,98750.66
2023-01-17T22:03:57.724Z,98758.06
2023-01-17T22:06:28.287Z,98762.19
2023-01-17T22:08:55.407Z,98758.41
2023-01-17T22:11:25.081Z,98764.72
2023-01-17T22:13:52.232Z,98760.75
2023-01-17T22:16:21.099Z,98763.06
2023-01-17T22:18:47.935Z,98762.06
2023-01-17T22:21:23.507Z,98757.69
2023-01-17T22:23:52.302Z,98769.22
2023-01-17T22:26:21.527Z,98773.75
2023-01-17T22:28:48.629Z,98767.16
2023-01-17T22:31:23.719Z,98758.97
2023-01-17T22:33:58.380Z,98775.03
2023-01-17T22:36:25.628Z,98777.09
2023-01-17T22:38:52.793Z,98770.38
2023-01-17T22:41:27.959Z,98775.25
2023-01-17T22:43:58.463Z,98776.38
2023-01-17T22:46:27.739Z,98776.66
2023-01-17T22:48:55.153Z,98766.91
2023-01-17T22:51:24.268Z,98775.56
2023-01-17T22:53:55.338Z,98772.09
2023-01-17T22:56:24.591Z,98768.75
2023-01-17T22:58:52.987Z,98763.91
2023-01-17T23:01:21.975Z,98767.03
2023-01-17T23:03:53.978Z,98771.72
2023-01-17T23:06:28.572Z,98771.44
2023-01-17T23:08:57.122Z,98771.66
2023-01-17T23:11:46.168Z,98777.34
2023-01-17T23:14:14.692Z,98769.97
2023-01-17T23:17:07.027Z,98767.31
2023-01-17T23:19:37.920Z,98769.34
2023-01-17T23:22:15.813Z,98771.22
2023-01-17T23:24:46.076Z,98760.56
2023-01-17T23:27:46.130Z,98769.19
2023-01-17T23:30:14.168Z,98778.03
2023-01-17T23:32:44.740Z,98771.84
2023-01-17T23:35:11.864Z,98763.81
2023-01-17T23:37:57.131Z,98766.28
2023-01-17T23:40:24.760Z,98771.53
2023-01-17T23:43:09.885Z,98766.53
2023-01-17T23:45:37.945Z,98769.78
2023-01-17T23:48:09.261Z,98769.16
2023-01-17T23:50:40.474Z,98776.25
2023-01-17T23:53:08.124Z,98773.69
2023-01-17T23:55:39.748Z,98780.78
2023-01-17T23:58:08.484Z,98782.34
